createdAt,value
2023-10-24T00:02:06.491Z,10.30
2023-10-24T00:04:33.415Z,7.75
2023-10-24T00:07:00.179Z,8.85
2023-10-24T00:09:26.966Z,8.52
2023-10-24T00:11:53.768Z,7.93
2023-10-24T00:14:21.362Z,7.88
2023-10-24T00:16:48.400Z,8.25
2023-10-24T00:19:15.409Z,9.57
2023-10-24T00:21:42.340Z,10.20
2023-10-24T00:24:09.725Z,8.55
2023-10-24T00:26:36.464Z,8.63
2023-10-24T00:29:03.885Z,13.65
2023-10-24T00:31:30.854Z,8.02
2023-10-24T00:33:57.788Z,8.13
2023-10-24T00:36:24.710Z,10.88
2023-10-24T00:38:51.566Z,9.50
2023-10-24T00:41:18.439Z,9.20
2023-10-24T00:43:45.786Z,9.20
2023-10-24T00:46:13.516Z,8.90
2023-10-24T00:48:40.823Z,11.10
2023-10-24T00:51:07.599Z,11.70
2023-10-24T00:53:34.529Z,9.05
2023-10-24T00:56:02.635Z,7.28
2023-10-24T00:58:30.043Z,7.82
2023-10-24T01:00:57.816Z,8.85
2023-10-24T01:03:25.122Z,8.65
2023-10-24T01:05:52.031Z,10.13
2023-10-24T01:08:19.465Z,10.05
2023-10-24T01:10:46.497Z,10.18
2023-10-24T01:13:13.333Z,8.82
2023-10-24T01:15:40.196Z,9.30
2023-10-24T01:18:07.128Z,9.15
2023-10-24T01:20:33.957Z,8.13
2023-10-24T01:23:00.781Z,8.65
2023-10-24T01:25:30.087Z,7.63
2023-10-24T01:27:57.739Z,8.13
2023-10-24T01:30:24.638Z,6.82
2023-10-24T01:32:51.468Z,6.63
2023-10-24T01:35:18.458Z,8.57
2023-10-24T01:37:45.325Z,8.27
2023-10-24T01:40:12.494Z,10.90
2023-10-24T01:42:40.063Z,6.72
2023-10-24T01:45:07.852Z,8.70
2023-10-24T01:47:34.748Z,9.88
2023-10-24T01:50:02.103Z,7.40
2023-10-24T01:52:28.859Z,9.68
2023-10-24T01:54:55.965Z,6.60
2023-10-24T01:57:22.795Z,9.52
2023-10-24T01:59:49.581Z,7.40
2023-10-24T02:02:16.617Z,5.47
2023-10-24T02:04:43.668Z,9.00
2023-10-24T02:07:11.005Z,8.25
2023-10-24T02:09:37.872Z,6.57
2023-10-24T02:12:05.257Z,7.30
2023-10-24T02:14:32.372Z,7.53
2023-10-24T02:16:59.154Z,8.70
2023-10-24T02:19:26.856Z,9.48
2023-10-24T02:21:53.881Z,9.65
2023-10-24T02:24:20.798Z,7.70
2023-10-24T02:26:47.681Z,7.30
2023-10-24T02:29:14.629Z,9.68
2023-10-24T02:31:42.049Z,8.00
2023-10-24T02:34:09.080Z,10.68
2023-10-24T02:36:36.022Z,8.52
2023-10-24T02:39:03.290Z,11.57
2023-10-24T02:41:30.026Z,9.57
2023-10-24T02:43:56.883Z,8.95
2023-10-24T02:46:23.749Z,9.55
2023-10-24T02:48:50.674Z,9.13
2023-10-24T02:51:17.415Z,8.23
2023-10-24T02:53:44.934Z,8.23
2023-10-24T02:56:12.038Z,10.43
2023-10-24T02:58:39.160Z,9.82
2023-10-24T03:01:06.219Z,10.23
2023-10-24T03:03:34.124Z,10.63
2023-10-24T03:06:01.452Z,10.52
2023-10-24T03:08:28.629Z,12.10
2023-10-24T03:10:55.616Z,9.95
2023-10-24T03:13:22.509Z,11.15
2023-10-24T03:15:49.677Z,9.25
2023-10-24T03:18:16.645Z,10.77
2023-10-24T03:20:43.453Z,11.90
2023-10-24T03:23:10.594Z,11.63
2023-10-24T03:25:44.241Z,11.02
2023-10-24T03:28:11.104Z,9.38
2023-10-24T03:30:37.873Z,17.02
2023-10-24T03:33:05.066Z,10.48
2023-10-24T03:35:34.028Z,10.98
2023-10-24T03:38:02.454Z,13.70
2023-10-24T03:40:29.568Z,15.32
2023-10-24T03:42:56.868Z,14.43
2023-10-24T03:45:23.765Z,14.10
2023-10-24T03:47:50.632Z,14.65
2023-10-24T03:50:17.701Z,14.35
2023-10-24T03:52:45.066Z,15.65
2023-10-24T03:55:12.805Z,15.77
2023-10-24T03:57:40.369Z,17.92
2023-10-24T04:00:10.998Z,18.40
2023-10-24T04:02:37.877Z,18.13
2023-10-24T04:05:05.042Z,18.33
2023-10-24T04:07:31.923Z,18.25
2023-10-24T04:09:58.788Z,21.08
2023-10-24T04:12:25.655Z,18.02
2023-10-24T04:14:52.497Z,22.05
2023-10-24T04:17:19.359Z,17.77
2023-10-24T04:19:47.093Z,18.73
2023-10-24T04:22:15.186Z,21.98
2023-10-24T04:24:42.224Z,21.38
2023-10-24T04:27:09.531Z,20.13
2023-10-24T04:29:36.576Z,20.90
2023-10-24T04:32:04.962Z,19.63
2023-10-24T04:34:31.907Z,22.05
2023-10-24T04:36:59.121Z,21.55
2023-10-24T04:39:26.469Z,24.45
2023-10-24T04:41:53.283Z,23.63
2023-10-24T04:44:20.550Z,22.17
2023-10-24T04:46:47.642Z,25.10
2023-10-24T04:49:17.199Z,26.77
2023-10-24T04:51:44.338Z,24.25
2023-10-24T04:54:11.203Z,21.30
2023-10-24T04:56:37.965Z,21.08
2023-10-24T04:59:04.860Z,22.50
2023-10-24T05:01:38.684Z,22.75
2023-10-24T05:04:07.349Z,23.20
2023-10-24T05:06:34.390Z,21.63
2023-10-24T05:09:01.319Z,24.13
2023-10-24T05:11:28.475Z,22.55
2023-10-24T05:13:55.391Z,22.25
2023-10-24T05:16:22.400Z,21.02
2023-10-24T05:18:50.280Z,23.88
2023-10-24T05:21:17.129Z,22.73
2023-10-24T05:23:43.997Z,27.90
2023-10-24T05:26:10.769Z,26.80
2023-10-24T05:28:37.576Z,24.45
2023-10-24T05:31:09.106Z,22.58
2023-10-24T05:38:34.123Z,29.50
2023-10-24T05:41:01.319Z,24.83
2023-10-24T05:43:28.458Z,27.25
2023-10-24T05:45:55.794Z,24.98
2023-10-24T05:48:23.496Z,30.27
2023-10-24T05:50:50.366Z,27.90
2023-10-24T05:53:17.268Z,31.23
2023-10-24T05:55:44.187Z,27.15
2023-10-24T05:58:11.082Z,31.73
2023-10-24T06:00:37.866Z,31.13
2023-10-24T06:03:04.905Z,31.48
2023-10-24T06:05:31.789Z,30.08
2023-10-24T06:07:59.866Z,30.38
2023-10-24T06:10:26.800Z,28.45
2023-10-24T06:12:53.706Z,32.03
2023-10-24T06:15:20.564Z,30.70
2023-10-24T06:17:47.397Z,32.33
2023-10-24T06:20:14.394Z,30.20
2023-10-24T06:22:41.760Z,31.58
2023-10-24T06:25:10.248Z,28.00
2023-10-24T06:27:36.985Z,29.80
2023-10-24T06:30:04.425Z,31.77
2023-10-24T06:32:31.698Z,30.80
2023-10-24T06:34:58.697Z,30.17
2023-10-24T06:37:25.524Z,29.77
2023-10-24T06:39:52.541Z,30.33
2023-10-24T06:42:19.452Z,30.55
2023-10-24T06:44:46.328Z,29.35
2023-10-24T06:47:13.026Z,30.20
2023-10-24T06:49:40.176Z,28.65
2023-10-24T06:52:07.666Z,33.65
2023-10-24T06:54:34.549Z,29.13
2023-10-24T06:57:01.417Z,30.42
2023-10-24T06:59:28.272Z,28.50
2023-10-24T07:01:55.181Z,27.08
2023-10-24T07:04:22.165Z,32.72
2023-10-24T07:06:49.605Z,28.38
2023-10-24T07:09:16.825Z,28.80
2023-10-24T07:11:43.706Z,28.70
2023-10-24T07:14:10.437Z,27.88
2023-10-24T07:16:37.369Z,29.20
2023-10-24T07:19:04.176Z,26.73
2023-10-24T07:21:30.963Z,26.45
2023-10-24T07:23:59.303Z,27.08
2023-10-24T07:26:26.246Z,25.73
2023-10-24T07:28:53.187Z,26.40
2023-10-24T07:31:20.035Z,29.30
2023-10-24T07:33:47.808Z,27.63
2023-10-24T07:36:14.604Z,28.58
2023-10-24T07:38:41.727Z,27.42
2023-10-24T07:41:09.157Z,25.35
2023-10-24T07:43:35.960Z,25.33
2023-10-24T07:46:02.792Z,24.08
2023-10-24T07:48:29.733Z,28.05
2023-10-24T07:50:57.943Z,26.85
2023-10-24T07:53:26.354Z,25.45
2023-10-24T07:55:54.071Z,24.90
2023-10-24T07:58:21.493Z,27.40
2023-10-24T08:00:49.493Z,25.73
2023-10-24T08:03:17.594Z,24.60
2023-10-24T08:05:45.092Z,24.80
2023-10-24T08:08:12.066Z,23.38
2023-10-24T08:10:40.596Z,24.50
2023-10-24T08:13:07.540Z,25.00
2023-10-24T08:15:34.427Z,24.77
2023-10-24T08:18:01.234Z,25.80
2023-10-24T08:20:28.198Z,24.50
2023-10-24T08:22:56.078Z,22.35
2023-10-24T08:25:23.098Z,24.00
2023-10-24T08:27:49.986Z,23.48
2023-10-24T08:30:16.933Z,23.05
2023-10-24T08:32:43.823Z,26.85
2023-10-24T08:35:10.999Z,24.08
2023-10-24T08:37:37.935Z,24.02
2023-10-24T08:40:05.309Z,23.67
2023-10-24T08:42:32.306Z,23.00
2023-10-24T08:45:01.206Z,25.67
2023-10-24T08:47:30.599Z,23.92
2023-10-24T08:50:00.850Z,22.42
2023-10-24T08:52:30.982Z,23.42
2023-10-24T08:55:07.054Z,24.60
2023-10-24T08:57:41.943Z,24.10
2023-10-24T09:00:15.162Z,23.35
2023-10-24T09:02:43.419Z,24.95
2023-10-24T09:05:11.634Z,22.95
2023-10-24T09:07:38.641Z,22.30
2023-10-24T09:10:06.308Z,25.02
2023-10-24T09:12:34.083Z,23.35
2023-10-24T09:15:01.907Z,24.25
2023-10-24T09:17:32.760Z,25.67
2023-10-24T09:20:00.423Z,23.10
2023-10-24T09:22:33.012Z,26.50
2023-10-24T09:25:02.944Z,24.48
2023-10-24T09:27:29.977Z,21.55
2023-10-24T09:29:56.921Z,21.92
2023-10-24T09:32:23.749Z,23.35
2023-10-24T09:34:50.613Z,25.58
2023-10-24T09:37:18.086Z,24.55
2023-10-24T09:39:55.311Z,24.48
2023-10-24T09:42:32.871Z,23.58
2023-10-24T09:45:06.835Z,26.35
2023-10-24T09:47:35.083Z,27.80
2023-10-24T09:50:03.707Z,25.83
2023-10-24T09:52:31.401Z,25.65
2023-10-24T09:54:59.723Z,23.25
2023-10-24T09:57:28.209Z,26.85
2023-10-24T09:59:58.954Z,24.10
2023-10-24T10:02:27.780Z,23.92
2023-10-24T10:04:55.379Z,25.30
2023-10-24T10:07:22.880Z,23.27
2023-10-24T10:09:55.073Z,24.95
2023-10-24T10:12:22.112Z,22.33
2023-10-24T10:15:13.317Z,23.30
2023-10-24T10:17:56.240Z,24.55
2023-10-24T10:20:56.215Z,23.08
2023-10-24T10:23:26.001Z,27.77
2023-10-24T10:25:59.939Z,23.25
2023-10-24T10:28:42.239Z,22.33
2023-10-24T10:32:49.160Z,24.02
2023-10-24T10:34:19.788Z,25.77
2023-10-24T10:36:55.955Z,22.27
2023-10-24T10:39:22.835Z,23.67
2023-10-24T10:41:49.603Z,21.65
2023-10-24T10:44:34.789Z,26.15
2023-10-24T10:47:03.356Z,24.85
2023-10-24T10:49:49.843Z,23.58
2023-10-24T10:52:30.264Z,23.00
2023-10-24T10:55:21.049Z,22.63
2023-10-24T10:58:03.409Z,21.83
2023-10-24T11:00:43.583Z,21.52
2023-10-24T11:03:20.498Z,21.52
2023-10-24T11:05:50.646Z,23.15
2023-10-24T11:08:21.471Z,25.90
2023-10-24T11:11:04.134Z,21.77
2023-10-24T11:13:31.685Z,25.30
2023-10-24T11:15:58.524Z,21.02
2023-10-24T11:18:27.404Z,20.40
2023-10-24T11:20:54.642Z,24.42
2023-10-24T11:23:22.456Z,21.17
2023-10-24T11:25:50.114Z,21.65
2023-10-24T11:28:17.761Z,22.80
2023-10-24T11:30:44.562Z,20.55
2023-10-24T11:33:11.440Z,20.10
2023-10-24T11:35:38.460Z,20.67
2023-10-24T11:38:05.451Z,19.75
2023-10-24T11:40:32.419Z,23.90
2023-10-24T11:43:06.847Z,23.90
2023-10-24T11:45:34.715Z,21.73
2023-10-24T11:48:01.582Z,21.40
2023-10-24T11:50:38.324Z,20.20
2023-10-24T11:53:05.272Z,25.58
2023-10-24T11:55:34.744Z,19.98
2023-10-24T11:58:03.225Z,21.88
2023-10-24T12:00:34.377Z,20.20
2023-10-24T12:03:05.820Z,27.23
2023-10-24T12:05:34.020Z,21.58
2023-10-24T12:08:02.129Z,24.13
2023-10-24T12:10:33.623Z,21.30
2023-10-24T12:13:04.959Z,19.88
2023-10-24T12:15:32.237Z,18.67
2023-10-24T12:18:05.325Z,20.23
2023-10-24T12:20:32.374Z,19.13
2023-10-24T12:22:59.356Z,25.02
2023-10-24T12:25:26.341Z,22.15
2023-10-24T12:27:53.207Z,20.20
2023-10-24T12:30:20.704Z,20.92
2023-10-24T12:32:47.785Z,20.88
2023-10-24T12:35:14.754Z,22.25
2023-10-24T12:37:41.640Z,21.15
2023-10-24T12:40:09.003Z,20.63
2023-10-24T12:42:35.859Z,19.75
2023-10-24T12:45:03.618Z,19.38
2023-10-24T12:47:30.672Z,21.33
2023-10-24T12:49:58.782Z,21.17
2023-10-24T12:52:25.798Z,21.92
2023-10-24T12:54:52.683Z,21.42
2023-10-24T12:57:19.879Z,21.23
2023-10-24T12:59:48.921Z,22.35
2023-10-24T13:02:15.956Z,22.58
2023-10-24T13:04:45.756Z,21.23
2023-10-24T13:07:13.938Z,20.13
2023-10-24T13:09:41.452Z,21.88
2023-10-24T13:12:11.687Z,21.40
2023-10-24T13:14:39.140Z,20.42
2023-10-24T13:17:15.645Z,27.60
2023-10-24T13:19:44.400Z,19.23
2023-10-24T13:22:11.479Z,21.30
2023-10-24T13:24:38.803Z,22.00
2023-10-24T13:27:07.006Z,20.50
2023-10-24T13:29:34.214Z,21.52
2023-10-24T13:32:02.986Z,20.38
2023-10-24T13:37:01.183Z,23.02
2023-10-24T13:39:28.088Z,22.60
2023-10-24T13:41:54.922Z,23.50
2023-10-24T13:44:21.747Z,21.52
2023-10-24T13:46:48.634Z,21.48
2023-10-24T13:49:15.644Z,21.85
2023-10-24T13:51:42.598Z,20.63
2023-10-24T13:54:09.467Z,19.88
2023-10-24T13:56:36.397Z,24.17
2023-10-24T13:59:03.318Z,22.83
2023-10-24T14:01:30.410Z,22.95
2023-10-24T14:03:57.398Z,20.85
2023-10-24T14:06:24.419Z,21.23
2023-10-24T14:08:51.365Z,22.80
2023-10-24T14:11:18.258Z,19.58
2023-10-24T14:13:45.214Z,21.67
2023-10-24T14:16:12.432Z,22.20
2023-10-24T14:18:39.336Z,18.27
2023-10-24T14:21:06.680Z,20.25
2023-10-24T14:23:33.487Z,21.55
2023-10-24T14:26:02.161Z,22.23
2023-10-24T14:28:29.461Z,22.85
2023-10-24T14:30:56.239Z,20.02
2023-10-24T14:33:23.495Z,21.42
2023-10-24T14:35:50.508Z,21.98
2023-10-24T14:38:17.281Z,19.25
2023-10-24T14:40:44.580Z,21.50
2023-10-24T14:43:11.395Z,21.38
2023-10-24T14:45:39.288Z,21.95
2023-10-24T14:48:08.019Z,25.83
2023-10-24T14:50:35.030Z,21.85
2023-10-24T14:53:02.189Z,20.88
2023-10-24T14:55:29.143Z,24.67
2023-10-24T14:57:55.950Z,23.05
2023-10-24T15:00:22.889Z,22.73
2023-10-24T15:02:49.822Z,23.55
2023-10-24T15:05:16.999Z,23.83
2023-10-24T15:07:44.039Z,25.58
2023-10-24T15:10:10.929Z,23.15
2023-10-24T15:12:37.846Z,24.48
2023-10-24T15:15:05.379Z,20.27
2023-10-24T15:17:32.866Z,23.50
2023-10-24T15:19:59.780Z,24.50
2023-10-24T15:22:26.798Z,23.08
2023-10-24T15:24:54.157Z,23.88
2023-10-24T15:27:20.962Z,25.02
2023-10-24T15:29:47.788Z,25.58
2023-10-24T15:32:16.323Z,24.80
2023-10-24T15:34:43.810Z,25.45
2023-10-24T15:37:11.182Z,24.92
2023-10-24T15:39:38.555Z,27.05
2023-10-24T15:42:05.870Z,29.63
2023-10-24T15:44:32.771Z,26.15
2023-10-24T15:46:59.797Z,27.20
2023-10-24T15:49:26.960Z,32.08
2023-10-24T15:51:54.287Z,29.85
2023-10-24T15:54:21.467Z,31.05
2023-10-24T15:56:48.570Z,30.73
2023-10-24T15:59:16.129Z,33.70
2023-10-24T16:01:45.042Z,36.60
2023-10-24T16:04:11.987Z,36.08
2023-10-24T16:06:38.840Z,40.42
2023-10-24T16:09:05.726Z,38.97
2023-10-24T16:11:32.555Z,35.20
2023-10-24T16:14:01.278Z,37.70
2023-10-24T16:16:28.299Z,36.58
2023-10-24T16:18:56.698Z,36.80
2023-10-24T16:21:24.296Z,39.03
2023-10-24T16:23:51.163Z,36.95
2023-10-24T16:26:18.060Z,39.60
2023-10-24T16:28:45.539Z,41.45
2023-10-24T16:31:14.249Z,38.63
2023-10-24T16:33:41.695Z,39.67
2023-10-24T16:36:08.804Z,40.28
2023-10-24T16:38:35.674Z,39.20
2023-10-24T16:41:02.777Z,39.75
2023-10-24T16:43:32.992Z,36.75
2023-10-24T16:46:00.668Z,38.88
2023-10-24T16:48:29.201Z,39.15
2023-10-24T16:50:57.343Z,43.58
2023-10-24T16:53:25.337Z,41.05
2023-10-24T16:55:59.505Z,43.20
2023-10-24T16:58:26.538Z,38.60
2023-10-24T17:00:56.210Z,37.97
2023-10-24T17:03:23.899Z,37.90
2023-10-24T17:05:52.476Z,37.78
2023-10-24T17:08:21.612Z,37.30
2023-10-24T17:10:58.213Z,37.50
2023-10-24T17:13:27.146Z,37.13
2023-10-24T17:15:58.142Z,37.72
2023-10-24T17:18:27.581Z,36.60
2023-10-24T17:20:57.468Z,38.75
2023-10-24T17:23:29.426Z,34.45
2023-10-24T17:25:57.165Z,33.45
2023-10-24T17:28:24.904Z,37.47
2023-10-24T17:30:52.780Z,35.90
2023-10-24T17:33:19.724Z,33.17
2023-10-24T17:35:46.628Z,35.60
2023-10-24T17:38:13.476Z,35.05
2023-10-24T17:40:44.303Z,33.15
2023-10-24T17:43:11.141Z,32.28
2023-10-24T17:45:41.563Z,30.05
2023-10-24T17:48:08.603Z,29.85
2023-10-24T17:50:36.802Z,31.98
2023-10-24T17:53:04.985Z,31.38
2023-10-24T17:55:36.628Z,29.02
2023-10-24T17:58:04.082Z,37.33
2023-10-24T18:00:32.949Z,27.90
2023-10-24T18:02:59.979Z,28.67
2023-10-24T18:05:27.100Z,32.33
2023-10-24T18:07:57.323Z,28.63
2023-10-24T18:10:24.612Z,27.38
2023-10-24T18:12:52.726Z,25.38
2023-10-24T18:15:20.692Z,28.30
2023-10-24T18:17:47.619Z,23.73
2023-10-24T18:20:14.530Z,26.83
2023-10-24T18:22:41.720Z,28.90
2023-10-24T18:25:11.046Z,25.52
2023-10-24T18:27:38.102Z,23.83
2023-10-24T18:30:06.581Z,22.42
2023-10-24T18:32:36.823Z,23.10
2023-10-24T18:35:04.249Z,25.45
2023-10-24T18:37:32.766Z,21.92
2023-10-24T18:39:59.532Z,23.48
2023-10-24T18:42:30.468Z,21.20
2023-10-24T18:44:58.953Z,20.83
2023-10-24T18:47:26.071Z,24.00
2023-10-24T18:49:54.229Z,22.83
2023-10-24T18:52:24.504Z,21.02
2023-10-24T18:54:55.341Z,22.73
2023-10-24T18:57:22.282Z,23.33
2023-10-24T18:59:59.947Z,20.52
2023-10-24T19:02:27.240Z,18.75
2023-10-24T19:04:56.192Z,20.90
2023-10-24T19:07:23.516Z,20.05
2023-10-24T19:09:50.954Z,22.08
2023-10-24T19:12:18.337Z,20.15
2023-10-24T19:14:46.067Z,20.75
2023-10-24T19:17:13.597Z,21.17
2023-10-24T19:19:41.214Z,20.27
2023-10-24T19:22:10.420Z,20.65
2023-10-24T19:24:37.749Z,21.40
2023-10-24T19:27:05.651Z,20.60
2023-10-24T19:29:32.926Z,18.80
2023-10-24T19:32:00.144Z,20.60
2023-10-24T19:34:27.598Z,22.63
2023-10-24T19:36:55.542Z,17.85
2023-10-24T19:39:23.058Z,18.38
2023-10-24T19:41:50.601Z,18.48
2023-10-24T19:44:17.678Z,21.60
2023-10-24T19:46:47.419Z,20.35
2023-10-24T19:49:14.787Z,21.42
2023-10-24T19:51:42.123Z,20.17
2023-10-24T19:54:11.448Z,21.85
2023-10-24T19:56:40.067Z,20.40
2023-10-24T19:59:07.336Z,19.95
2023-10-24T20:01:37.011Z,20.88
2023-10-24T20:04:04.693Z,20.73
2023-10-24T20:06:36.127Z,22.25
2023-10-24T20:09:06.481Z,20.38
2023-10-24T20:12:37.992Z,17.45
2023-10-24T20:14:23.771Z,20.00
2023-10-24T20:16:56.464Z,21.40
2023-10-24T20:19:23.673Z,20.90
2023-10-24T20:21:50.770Z,19.92
2023-10-24T20:24:17.958Z,20.98
2023-10-24T20:26:45.483Z,20.77
2023-10-24T20:29:12.218Z,20.17
2023-10-24T20:31:39.261Z,20.30
2023-10-24T20:34:06.402Z,22.48
2023-10-24T20:36:35.495Z,19.52
2023-10-24T20:39:02.312Z,21.42
2023-10-24T20:41:29.162Z,18.23
2023-10-24T20:43:56.587Z,19.58
2023-10-24T20:46:23.458Z,16.48
2023-10-24T20:48:50.244Z,19.08
2023-10-24T20:51:17.205Z,17.65
2023-10-24T20:53:44.167Z,16.95
2023-10-24T20:56:11.017Z,18.75
2023-10-24T20:58:37.873Z,19.88
2023-10-24T21:01:04.812Z,16.27
2023-10-24T21:03:31.746Z,19.05
2023-10-24T21:05:59.599Z,20.85
2023-10-24T21:08:26.572Z,17.67
2023-10-24T21:10:57.202Z,18.15
2023-10-24T21:13:24.003Z,16.30
2023-10-24T21:15:58.025Z,18.50
2023-10-24T21:18:25.089Z,19.33
2023-10-24T21:20:52.076Z,17.98
2023-10-24T21:23:18.847Z,17.27
2023-10-24T21:25:45.674Z,19.80
2023-10-24T21:28:13.005Z,18.20
2023-10-24T21:30:40.589Z,17.90
2023-10-24T21:33:08.441Z,17.88
2023-10-24T21:35:53.635Z,21.33
2023-10-24T21:38:20.385Z,20.17
2023-10-24T21:40:54.202Z,19.20
2023-10-24T21:43:23.774Z,19.98
2023-10-24T21:45:51.622Z,18.63
2023-10-24T21:48:18.441Z,21.27
2023-10-24T21:50:45.569Z,22.13
2023-10-24T21:53:12.311Z,19.50
2023-10-24T21:55:39.117Z,22.70
2023-10-24T21:58:06.018Z,21.90
2023-10-24T22:00:33.431Z,22.67
2023-10-24T22:03:00.496Z,21.65
2023-10-24T22:05:27.536Z,22.48
2023-10-24T22:07:55.189Z,23.02
2023-10-24T22:10:22.578Z,23.85
2023-10-24T22:12:49.570Z,25.00
2023-10-24T22:15:16.785Z,21.88
2023-10-24T22:17:43.958Z,24.13
2023-10-24T22:20:11.454Z,27.85
2023-10-24T22:22:38.369Z,22.63
2023-10-24T22:25:05.778Z,23.73
2023-10-24T22:27:32.907Z,24.45
2023-10-24T22:29:59.669Z,22.80
2023-10-24T22:32:26.573Z,24.50
2023-10-24T22:34:53.342Z,24.17
2023-10-24T22:37:20.137Z,22.95
2023-10-24T22:39:47.192Z,23.45
2023-10-24T22:42:14.226Z,25.35
2023-10-24T22:44:41.078Z,28.17
2023-10-24T22:47:07.923Z,23.67
2023-10-24T22:49:34.890Z,27.02
2023-10-24T22:52:01.849Z,29.33
2023-10-24T22:54:28.709Z,27.10
2023-10-24T22:56:55.629Z,29.13
2023-10-24T22:59:23.529Z,25.88
2023-10-24T23:01:51.016Z,27.13
2023-10-24T23:04:18.487Z,25.45
2023-10-24T23:06:45.411Z,23.80
2023-10-24T23:09:12.302Z,27.52
2023-10-24T23:11:39.144Z,26.67
2023-10-24T23:14:06.016Z,26.00
2023-10-24T23:16:32.984Z,27.33
2023-10-24T23:19:00.974Z,28.75
2023-10-24T23:21:27.681Z,31.55
2023-10-24T23:23:54.556Z,29.63
2023-10-24T23:26:21.273Z,31.75
2023-10-24T23:28:48.377Z,30.13
2023-10-24T23:31:15.259Z,27.55
2023-10-24T23:33:44.050Z,32.72
2023-10-24T23:36:10.913Z,33.60
2023-10-24T23:38:37.739Z,33.63
2023-10-24T23:41:04.570Z,34.78
2023-10-24T23:43:31.438Z,35.63
2023-10-24T23:45:58.252Z,32.20
2023-10-24T23:48:25.228Z,34.10
2023-10-24T23:50:52.656Z,28.88
2023-10-24T23:53:19.512Z,27.85
2023-10-24T23:55:46.311Z,29.85
2023-10-24T23:58:16.327Z,28.20
